Time;durP1;ratioP1;P1;durP2;ratioP2;P2;SDS_P1;SDS_P2;PMS_P1;PMS_P2;Temp;Humidity;BMP_temperature;BMP_pressure;BME280_temperature;BME280_humidity;BME280_pressure;Samples;Min_cycle;Max_cycle;Signal;HPM_P1;HPM_P2
2022/04/22 00:00:16;;;;;;;10.10;8.80;;;;;;;;;;4955753;28;20418;-52
2022/04/22 00:02:42;;;;;;;9.60;8.67;;;;;;;;;;4956199;28;20412;-52
2022/04/22 00:05:08;;;;;;;11.87;9.33;;;;;;;;;;4956121;28;20563;-52
2022/04/22 00:07:34;;;;;;;9.90;8.83;;;;;;;;;;4956025;28;20402;-52
2022/04/22 00:10:00;;;;;;;9.53;8.63;;;;;;;;;;4955354;28;20417;-52
2022/04/22 00:12:26;;;;;;;14.63;9.97;;;;;;;;;;4955945;28;20964;-51
2022/04/22 00:14:53;;;;;;;11.73;10.30;;;;;;;;;;4954921;28;20406;-53
2022/04/22 00:17:19;;;;;;;11.30;9.70;;;;;;;;;;4955909;28;20406;-53
2022/04/22 00:19:45;;;;;;;11.00;9.30;;;;;;;;;;4955140;28;20433;-52
2022/04/22 00:22:11;;;;;;;10.70;9.13;;;;;;;;;;4955793;28;20824;-52
2022/04/22 00:24:37;;;;;;;12.00;8.80;;;;;;;;;;4955717;28;20453;-52
2022/04/22 00:27:03;;;;;;;13.50;9.10;;;;;;;;;;4955736;28;20910;-51
2022/04/22 00:29:29;;;;;;;10.23;8.77;;;;;;;;;;4955046;28;20421;-52
2022/04/22 00:31:55;;;;;;;9.83;8.70;;;;;;;;;;4955340;28;20848;-51
2022/04/22 00:34:21;;;;;;;10.50;8.93;;;;;;;;;;4955645;28;20968;-51
2022/04/22 00:36:47;;;;;;;11.30;10.03;;;;;;;;;;4955537;28;20945;-53
2022/04/22 00:39:13;;;;;;;10.40;9.03;;;;;;;;;;4954956;28;20434;-51
2022/04/22 00:41:39;;;;;;;12.77;9.17;;;;;;;;;;4955458;28;20406;-51
2022/04/22 00:44:05;;;;;;;11.63;9.27;;;;;;;;;;4955359;28;20453;-50
2022/04/22 00:46:31;;;;;;;11.80;9.43;;;;;;;;;;4955357;28;20807;-51
2022/04/22 00:48:58;;;;;;;11.53;10.03;;;;;;;;;;4954534;28;20520;-51
2022/04/22 00:51:24;;;;;;;10.50;9.50;;;;;;;;;;4955595;28;20398;-51
2022/04/22 00:53:54;;;;;;;10.80;9.70;;;;;;;;;;4955759;28;20815;-51
2022/04/22 00:56:20;;;;;;;12.13;9.93;;;;;;;;;;4955353;28;20488;-51
2022/04/22 00:58:47;;;;;;;12.43;9.63;;;;;;;;;;4954600;28;20820;-51
2022/04/22 01:01:13;;;;;;;12.00;10.20;;;;;;;;;;4954923;28;20409;-52
2022/04/22 01:09:46;;;;;;;13.60;10.60;;;;;;;;;;4953712;29;20493;-52
2022/04/22 01:12:09;;;;;;;15.00;11.60;;;;;;;;;;4954157;29;20421;-52
2022/04/22 01:14:35;;;;;;;12.00;10.70;;;;;;;;;;4954777;28;20402;-51
2022/04/22 01:17:01;;;;;;;14.93;10.47;;;;;;;;;;4954810;28;20409;-52
2022/04/22 01:19:31;;;;;;;12.90;10.77;;;;;;;;;;4954071;28;20437;-53
2022/04/22 01:21:57;;;;;;;13.30;11.07;;;;;;;;;;4954816;28;20777;-51
2022/04/22 01:24:23;;;;;;;17.43;12.40;;;;;;;;;;4954639;28;20455;-52
2022/04/22 01:26:50;;;;;;;13.80;10.93;;;;;;;;;;4954232;28;20456;-52
2022/04/22 01:29:16;;;;;;;13.63;10.27;;;;;;;;;;4954066;28;20799;-52
2022/04/22 01:31:43;;;;;;;13.50;10.90;;;;;;;;;;4954582;28;20430;-51
2022/04/22 01:34:09;;;;;;;14.83;11.10;;;;;;;;;;4954602;28;20410;-51
2022/04/22 01:36:35;;;;;;;12.63;11.10;;;;;;;;;;4954214;28;20406;-51
2022/04/22 01:39:01;;;;;;;15.17;12.20;;;;;;;;;;4953657;28;20425;-52
2022/04/22 01:41:29;;;;;;;15.10;10.90;;;;;;;;;;4954312;28;20424;-52
2022/04/22 01:43:55;;;;;;;14.97;12.80;;;;;;;;;;4954297;28;21118;-53
2022/04/22 01:46:21;;;;;;;14.87;11.27;;;;;;;;;;4954357;28;20498;-50
2022/04/22 01:48:47;;;;;;;18.60;11.60;;;;;;;;;;4953533;28;20898;-51
2022/04/22 01:51:13;;;;;;;15.33;11.80;;;;;;;;;;4954220;28;20406;-52
2022/04/22 01:53:39;;;;;;;14.37;12.13;;;;;;;;;;4954115;28;20406;-52
2022/04/22 01:56:05;;;;;;;20.30;13.13;;;;;;;;;;4954206;28;20414;-53
2022/04/22 01:58:32;;;;;;;16.30;12.63;;;;;;;;;;4953469;28;20909;-52
2022/04/22 02:00:58;;;;;;;18.17;13.13;;;;;;;;;;4954030;28;20938;-52
2022/04/22 02:03:24;;;;;;;18.07;12.43;;;;;;;;;;4954010;28;20512;-52
2022/04/22 02:05:56;;;;;;;23.30;13.20;;;;;;;;;;4954011;28;20840;-50
2022/04/22 02:08:22;;;;;;;15.23;13.00;;;;;;;;;;4953802;28;20456;-52
2022/04/22 02:10:48;;;;;;;16.10;12.47;;;;;;;;;;4953697;28;20843;-53
2022/04/22 02:16:17;;;;;;;18.67;14.67;;;;;;;;;;4953778;29;20486;-51
2022/04/22 02:18:43;;;;;;;16.90;12.67;;;;;;;;;;4953341;28;20409;-52
2022/04/22 02:21:10;;;;;;;16.00;13.00;;;;;;;;;;4953858;28;20484;-52
2022/04/22 02:23:36;;;;;;;19.73;12.93;;;;;;;;;;4953724;28;20457;-52
2022/04/22 02:26:03;;;;;;;21.07;14.00;;;;;;;;;;4953829;28;20444;-53
2022/04/22 02:28:32;;;;;;;17.70;12.70;;;;;;;;;;4953115;28;20862;-52
2022/04/22 02:31:08;;;;;;;18.33;13.20;;;;;;;;;;4953607;28;20863;-53
2022/04/22 02:33:35;;;;;;;18.93;13.77;;;;;;;;;;4953786;28;20421;-53
2022/04/22 02:36:01;;;;;;;18.67;13.13;;;;;;;;;;4953748;28;20465;-52
2022/04/22 02:38:28;;;;;;;20.50;13.93;;;;;;;;;;4954077;28;20402;-52
2022/04/22 02:46:24;;;;;;;21.13;14.73;;;;;;;;;;4958410;29;20466;-53
2022/04/22 02:48:51;;;;;;;18.13;14.03;;;;;;;;;;4957265;28;20763;-53
2022/04/22 02:51:17;;;;;;;18.90;14.70;;;;;;;;;;4957502;28;20432;-52
2022/04/22 02:53:43;;;;;;;17.07;13.20;;;;;;;;;;4957318;28;20433;-52
2022/04/22 02:56:09;;;;;;;18.83;13.20;;;;;;;;;;4957439;28;20549;-53
2022/04/22 02:58:36;;;;;;;19.97;14.57;;;;;;;;;;4956850;28;20421;-52
2022/04/22 03:01:02;;;;;;;21.50;14.63;;;;;;;;;;4957288;28;20431;-52
2022/04/22 03:03:28;;;;;;;19.57;14.00;;;;;;;;;;4957208;28;20461;-52
2022/04/22 03:05:54;;;;;;;18.80;12.40;;;;;;;;;;4957208;28;20890;-53
2022/04/22 03:08:20;;;;;;;20.60;15.07;;;;;;;;;;4956996;28;20419;-52
2022/04/22 03:10:48;;;;;;;27.57;15.27;;;;;;;;;;4956504;28;20841;-52
2022/04/22 03:13:15;;;;;;;20.30;14.33;;;;;;;;;;4957127;28;20882;-52
2022/04/22 03:15:41;;;;;;;21.67;13.80;;;;;;;;;;4957053;28;20456;-52
2022/04/22 03:18:07;;;;;;;16.83;13.50;;;;;;;;;;4957014;28;20447;-53
2022/04/22 03:20:33;;;;;;;20.90;14.37;;;;;;;;;;4956366;28;20422;-53
2022/04/22 03:22:59;;;;;;;22.40;14.87;;;;;;;;;;4956805;28;20402;-52
2022/04/22 03:25:25;;;;;;;21.97;15.13;;;;;;;;;;4957032;28;20465;-51
2022/04/22 03:27:51;;;;;;;20.97;15.73;;;;;;;;;;4956978;28;20782;-51
2022/04/22 03:30:17;;;;;;;23.43;14.90;;;;;;;;;;4956071;28;20523;-51
2022/04/22 03:32:43;;;;;;;22.37;14.73;;;;;;;;;;4956693;28;20430;-52
2022/04/22 03:35:10;;;;;;;26.23;16.60;;;;;;;;;;4956676;28;20841;-50
2022/04/22 03:37:36;;;;;;;22.60;16.50;;;;;;;;;;4956549;28;20405;-51
2022/04/22 03:40:03;;;;;;;21.93;15.43;;;;;;;;;;4955844;28;20428;-52
2022/04/22 03:42:29;;;;;;;22.80;15.50;;;;;;;;;;4956584;28;20408;-53
2022/04/22 03:44:58;;;;;;;20.93;16.30;;;;;;;;;;4956495;28;20883;-52
2022/04/22 03:47:24;;;;;;;23.27;15.73;;;;;;;;;;4956500;28;20404;-51
2022/04/22 03:49:50;;;;;;;22.90;14.50;;;;;;;;;;4955513;28;20843;-51
2022/04/22 03:52:16;;;;;;;25.43;15.67;;;;;;;;;;4956324;28;20410;-53
2022/04/22 03:54:42;;;;;;;22.53;16.00;;;;;;;;;;4956307;28;20461;-51
2022/04/22 03:59:54;;;;;;;22.17;15.43;;;;;;;;;;4955494;28;20787;-53
2022/04/22 04:02:20;;;;;;;25.47;17.80;;;;;;;;;;4956163;28;20406;-51
2022/04/22 04:04:48;;;;;;;21.20;15.47;;;;;;;;;;4956019;28;20484;-53
2022/04/22 04:07:14;;;;;;;27.63;15.50;;;;;;;;;;4956146;28;20409;-53
2022/04/22 04:17:54;;;;;;;26.17;17.87;;;;;;;;;;4955973;29;20463;-52
2022/04/22 04:23:17;;;;;;;26.80;17.17;;;;;;;;;;4956382;29;20409;-53
2022/04/22 04:25:44;;;;;;;29.90;17.57;;;;;;;;;;4955812;28;20437;-52
2022/04/22 04:28:10;;;;;;;26.77;17.13;;;;;;;;;;4955799;28;20433;-52
2022/04/22 04:30:40;;;;;;;26.50;18.70;;;;;;;;;;4955246;28;20427;-53
2022/04/22 04:33:07;;;;;;;21.87;17.30;;;;;;;;;;4955606;28;20948;-51
2022/04/22 04:35:35;;;;;;;24.33;17.30;;;;;;;;;;4955574;28;20821;-51
2022/04/22 04:38:01;;;;;;;24.43;17.33;;;;;;;;;;4955484;28;20448;-53
2022/04/22 04:40:27;;;;;;;28.30;18.47;;;;;;;;;;4954839;28;20425;-52
2022/04/22 04:42:53;;;;;;;27.60;18.47;;;;;;;;;;4955628;28;20420;-52
2022/04/22 04:45:19;;;;;;;27.70;18.07;;;;;;;;;;4955380;28;20513;-53
2022/04/22 04:47:45;;;;;;;27.30;19.80;;;;;;;;;;4955420;28;20416;-53
2022/04/22 04:50:12;;;;;;;24.57;18.50;;;;;;;;;;4954635;28;20797;-52
2022/04/22 04:52:38;;;;;;;27.60;19.83;;;;;;;;;;4955249;28;20432;-52
2022/04/22 04:55:05;;;;;;;28.30;20.00;;;;;;;;;;4955238;28;20418;-53
2022/04/22 04:57:31;;;;;;;33.77;20.13;;;;;;;;;;4955244;28;20965;-52
2022/04/22 04:59:57;;;;;;;26.30;19.90;;;;;;;;;;4954413;28;20527;-52
2022/04/22 05:02:23;;;;;;;29.40;20.73;;;;;;;;;;4953506;28;20402;-53
2022/04/22 05:04:49;;;;;;;27.40;20.20;;;;;;;;;;4954415;28;20457;-52
2022/04/22 05:07:15;;;;;;;26.90;20.43;;;;;;;;;;4954394;28;20402;-51
2022/04/22 05:09:41;;;;;;;33.70;24.27;;;;;;;;;;4953736;28;20602;-52
2022/04/22 05:12:09;;;;;;;31.93;22.60;;;;;;;;;;4954487;28;20425;-53
2022/04/22 05:14:35;;;;;;;35.07;23.57;;;;;;;;;;4954340;28;20769;-52
2022/04/22 05:17:01;;;;;;;31.23;22.03;;;;;;;;;;4954428;28;20413;-52
2022/04/22 05:19:27;;;;;;;30.97;22.80;;;;;;;;;;4953771;28;20430;-52
2022/04/22 05:21:55;;;;;;;34.63;23.87;;;;;;;;;;4954746;28;20775;-53
2022/04/22 05:24:21;;;;;;;29.87;22.57;;;;;;;;;;4954657;28;20457;-52
2022/04/22 05:26:47;;;;;;;31.47;23.50;;;;;;;;;;4954656;28;20410;-52
2022/04/22 05:34:47;;;;;;;29.57;22.60;;;;;;;;;;4954527;29;20405;-52
2022/04/22 05:37:13;;;;;;;27.67;21.07;;;;;;;;;;4954461;28;20406;-52
2022/04/22 05:39:39;;;;;;;31.80;22.57;;;;;;;;;;4953726;28;20423;-51
2022/04/22 05:42:06;;;;;;;31.47;22.00;;;;;;;;;;4954379;28;20402;-53
2022/04/22 05:44:31;;;;;;;28.73;21.97;;;;;;;;;;4954270;28;20527;-52
2022/04/22 05:46:57;;;;;;;32.00;23.00;;;;;;;;;;4954405;28;20894;-52
2022/04/22 05:49:23;;;;;;;30.00;22.17;;;;;;;;;;4953538;28;20926;-53
2022/04/22 05:51:49;;;;;;;32.33;22.07;;;;;;;;;;4954295;28;20405;-53
2022/04/22 05:54:15;;;;;;;28.73;20.87;;;;;;;;;;4954244;28;20401;-53
2022/04/22 05:56:41;;;;;;;28.47;21.37;;;;;;;;;;4954240;28;20872;-53
2022/04/22 05:59:07;;;;;;;36.50;22.33;;;;;;;;;;4953352;28;20499;-51
2022/04/22 06:01:33;;;;;;;26.27;19.93;;;;;;;;;;4954338;28;20488;-52
2022/04/22 06:03:59;;;;;;;24.43;19.70;;;;;;;;;;4954108;28;20466;-51
2022/04/22 06:06:25;;;;;;;27.83;20.63;;;;;;;;;;4954114;28;20398;-52
2022/04/22 06:11:36;;;;;;;26.20;18.97;;;;;;;;;;4954004;29;20486;-53
2022/04/22 06:14:02;;;;;;;24.73;18.03;;;;;;;;;;4953259;28;20466;-52
2022/04/22 06:16:28;;;;;;;25.03;18.60;;;;;;;;;;4953917;28;20412;-51
2022/04/22 06:18:54;;;;;;;25.30;19.23;;;;;;;;;;4953187;28;20497;-51
2022/04/22 06:21:20;;;;;;;28.77;19.03;;;;;;;;;;4953983;28;20412;-52
2022/04/22 06:23:46;;;;;;;27.80;20.13;;;;;;;;;;4953831;28;20553;-53
2022/04/22 06:26:12;;;;;;;21.73;16.97;;;;;;;;;;4953714;28;20437;-52
2022/04/22 06:28:38;;;;;;;22.90;17.17;;;;;;;;;;4946669;28;20791;-50
2022/04/22 06:31:04;;;;;;;18.17;15.43;;;;;;;;;;4953416;28;20426;-49
2022/04/22 06:33:30;;;;;;;22.23;15.83;;;;;;;;;;4953660;28;20426;-49
2022/04/22 06:36:00;;;;;;;21.60;16.67;;;;;;;;;;4953716;28;20789;-51
2022/04/22 06:38:27;;;;;;;18.53;14.30;;;;;;;;;;4953073;28;20451;-58
2022/04/22 06:46:22;;;;;;;18.20;13.90;;;;;;;;;;4954000;29;21053;-49
2022/04/22 06:48:48;;;;;;;16.03;13.50;;;;;;;;;;4952800;28;20949;-49
2022/04/22 06:51:17;;;;;;;19.80;14.17;;;;;;;;;;4953605;28;20895;-49
2022/04/22 06:53:43;;;;;;;17.00;14.50;;;;;;;;;;4953446;28;20413;-53
2022/04/22 06:56:09;;;;;;;15.90;13.93;;;;;;;;;;4953540;28;20419;-51
2022/04/22 06:58:39;;;;;;;16.60;12.93;;;;;;;;;;4953051;28;20430;-49
2022/04/22 07:01:05;;;;;;;18.10;13.30;;;;;;;;;;4953468;28;20905;-49
2022/04/22 07:03:31;;;;;;;16.37;13.70;;;;;;;;;;4953379;28;20407;-49
2022/04/22 07:05:57;;;;;;;16.50;14.53;;;;;;;;;;4953886;28;20402;-49
2022/04/22 07:08:23;;;;;;;15.67;13.10;;;;;;;;;;4953065;28;20399;-58
2022/04/22 07:10:50;;;;;;;15.63;13.30;;;;;;;;;;4953089;28;20481;-50
2022/04/22 07:13:17;;;;;;;14.87;13.27;;;;;;;;;;4953386;28;20405;-52
2022/04/22 07:15:47;;;;;;;14.77;12.03;;;;;;;;;;4952157;28;20428;-50
2022/04/22 07:18:13;;;;;;;12.50;11.20;;;;;;;;;;4953364;28;20453;-49
2022/04/22 07:20:39;;;;;;;13.40;11.70;;;;;;;;;;4952638;28;20422;-49
2022/04/22 07:23:06;;;;;;;14.57;12.70;;;;;;;;;;4953199;28;20407;-49
2022/04/22 07:25:32;;;;;;;18.77;13.87;;;;;;;;;;4955776;28;20515;-49
2022/04/22 07:27:58;;;;;;;13.27;11.97;;;;;;;;;;4956888;28;20433;-49
2022/04/22 07:30:25;;;;;;;15.40;12.80;;;;;;;;;;4955184;28;20436;-49
2022/04/22 07:32:51;;;;;;;14.77;12.50;;;;;;;;;;4956690;28;20406;-50
2022/04/22 07:35:18;;;;;;;14.40;12.00;;;;;;;;;;4956709;28;20417;-49
2022/04/22 07:37:49;;;;;;;13.60;11.30;;;;;;;;;;4956834;28;20739;-51
2022/04/22 07:40:16;;;;;;;17.30;12.33;;;;;;;;;;4955962;28;20481;-49
2022/04/22 07:46:46;;;;;;;12.63;11.30;;;;;;;;;;4958134;28;20437;-54
2022/04/22 07:48:14;;;;;;;13.07;11.13;;;;;;;;;;4957627;29;20417;-52
2022/04/22 07:50:40;;;;;;;12.93;10.87;;;;;;;;;;4958688;28;20449;-54
2022/04/22 07:53:06;;;;;;;15.37;11.37;;;;;;;;;;4956271;28;20949;-55
2022/04/22 07:55:32;;;;;;;13.30;11.90;;;;;;;;;;4956488;28;20413;-55
2022/04/22 07:57:58;;;;;;;12.23;10.93;;;;;;;;;;4956178;28;20416;-55
2022/04/22 08:00:24;;;;;;;13.67;12.20;;;;;;;;;;4955378;28;20449;-55
2022/04/22 08:02:50;;;;;;;13.10;11.70;;;;;;;;;;4956285;28;20442;-55
2022/04/22 08:05:16;;;;;;;12.53;11.30;;;;;;;;;;4956099;28;20442;-55
2022/04/22 08:07:42;;;;;;;15.63;11.93;;;;;;;;;;4956189;28;20404;-55
2022/04/22 08:10:08;;;;;;;13.40;12.00;;;;;;;;;;4955371;28;20425;-55
2022/04/22 08:12:34;;;;;;;14.13;11.83;;;;;;;;;;4955988;28;20891;-54
2022/04/22 08:15:03;;;;;;;13.00;11.70;;;;;;;;;;4956021;28;20410;-55
2022/04/22 08:17:36;;;;;;;14.00;12.03;;;;;;;;;;4956268;28;20561;-55
2022/04/22 08:20:02;;;;;;;14.80;11.40;;;;;;;;;;4955179;28;20452;-55
2022/04/22 08:22:28;;;;;;;11.70;10.60;;;;;;;;;;4955942;28;20749;-55
2022/04/22 08:24:54;;;;;;;14.40;11.50;;;;;;;;;;4955760;28;20437;-55
2022/04/22 08:27:20;;;;;;;13.43;11.87;;;;;;;;;;4955835;28;20496;-56
2022/04/22 08:29:47;;;;;;;13.33;12.03;;;;;;;;;;4955165;28;20505;-53
2022/04/22 08:32:13;;;;;;;15.13;11.90;;;;;;;;;;4961843;28;20446;-52
2022/04/22 08:34:46;;;;;;;12.20;10.90;;;;;;;;;;4960204;28;20937;-52
2022/04/22 08:37:12;;;;;;;12.37;10.80;;;;;;;;;;4957333;28;20463;-53
2022/04/22 08:39:38;;;;;;;13.47;12.20;;;;;;;;;;4960383;28;20424;-52
2022/04/22 08:42:05;;;;;;;12.30;11.10;;;;;;;;;;4957067;28;20474;-50
2022/04/22 08:44:31;;;;;;;12.23;11.00;;;;;;;;;;4959855;28;20432;-50
2022/04/22 08:49:59;;;;;;;15.03;11.23;;;;;;;;;;4959766;28;21009;-54
2022/04/22 08:52:26;;;;;;;11.87;10.70;;;;;;;;;;4956370;28;20410;-49
2022/04/22 08:54:54;;;;;;;15.60;11.80;;;;;;;;;;4958484;28;20407;-52
2022/04/22 08:57:21;;;;;;;13.43;12.23;;;;;;;;;;4958060;29;20483;-50
2022/04/22 08:59:51;;;;;;;13.80;12.53;;;;;;;;;;4959140;28;20428;-49
2022/04/22 09:02:17;;;;;;;14.40;12.90;;;;;;;;;;4957862;28;20925;-54
2022/04/22 09:04:48;;;;;;;14.63;12.70;;;;;;;;;;4960011;28;20422;-49
2022/04/22 09:07:16;;;;;;;15.70;14.20;;;;;;;;;;4955473;29;20421;-49
2022/04/22 09:09:44;;;;;;;15.90;13.40;;;;;;;;;;4957748;28;20426;-51
2022/04/22 09:12:17;;;;;;;15.40;13.80;;;;;;;;;;4958365;28;20436;-55
2022/04/22 09:14:44;;;;;;;16.67;14.63;;;;;;;;;;4957949;28;20436;-50
2022/04/22 09:17:12;;;;;;;19.87;15.13;;;;;;;;;;4960660;28;20523;-52
2022/04/22 09:19:38;;;;;;;15.80;14.20;;;;;;;;;;4956663;28;20421;-54
2022/04/22 09:22:04;;;;;;;15.50;13.90;;;;;;;;;;4941885;29;20428;-54
2022/04/22 09:24:46;;;;;;;14.50;13.10;;;;;;;;;;4956055;29;20559;-50
2022/04/22 09:27:13;;;;;;;15.53;12.57;;;;;;;;;;4958440;28;20437;-52
2022/04/22 09:29:53;;;;;;;16.73;12.80;;;;;;;;;;4957918;28;20418;-53
2022/04/22 09:32:23;;;;;;;15.27;11.60;;;;;;;;;;4957483;28;20471;-54
2022/04/22 09:34:48;;;;;;;12.80;11.60;;;;;;;;;;4957754;28;20821;-49
2022/04/22 09:42:49;;;;;;;13.83;11.77;;;;;;;;;;4958295;29;20397;-52
2022/04/22 09:45:18;;;;;;;13.10;10.93;;;;;;;;;;4958442;28;20451;-52
2022/04/22 09:47:44;;;;;;;12.07;10.83;;;;;;;;;;4959093;28;20744;-50
2022/04/22 09:50:11;;;;;;;16.60;11.83;;;;;;;;;;4958179;28;20400;-54
2022/04/22 09:52:43;;;;;;;13.27;11.10;;;;;;;;;;4958141;28;20487;-53
2022/04/22 09:55:09;;;;;;;11.53;9.97;;;;;;;;;;4956481;28;20476;-49
2022/04/22 09:57:55;;;;;;;15.63;9.60;;;;;;;;;;4958191;28;20404;-50
2022/04/22 10:00:22;;;;;;;9.33;8.37;;;;;;;;;;4959260;28;20436;-51
2022/04/22 10:02:52;;;;;;;16.93;10.50;;;;;;;;;;4941479;29;20531;-50
2022/04/22 10:05:27;;;;;;;19.67;10.83;;;;;;;;;;4955943;28;20494;-53
2022/04/22 10:07:56;;;;;;;13.00;10.20;;;;;;;;;;4958117;28;20380;-49
2022/04/22 10:10:42;;;;;;;10.37;9.40;;;;;;;;;;4956602;28;20441;-54
2022/04/22 10:13:13;;;;;;;10.37;9.20;;;;;;;;;;4956779;28;20418;-51
2022/04/22 10:15:39;;;;;;;10.00;9.00;;;;;;;;;;4958412;28;20659;-50
2022/04/22 10:18:05;;;;;;;11.10;10.00;;;;;;;;;;4956349;28;20950;-54
2022/04/22 10:20:32;;;;;;;10.73;8.90;;;;;;;;;;4953496;28;20433;-52
2022/04/22 10:22:59;;;;;;;9.30;8.40;;;;;;;;;;4955020;29;20493;-51
2022/04/22 10:25:28;;;;;;;8.50;7.70;;;;;;;;;;4956935;29;20799;-51
2022/04/22 10:27:57;;;;;;;10.00;7.93;;;;;;;;;;4958312;29;20376;-53
2022/04/22 10:30:23;;;;;;;11.00;8.40;;;;;;;;;;4956478;28;20405;-50
2022/04/22 10:32:50;;;;;;;8.93;8.03;;;;;;;;;;4955646;29;20450;-53
2022/04/22 10:35:16;;;;;;;10.00;9.00;;;;;;;;;;4957451;29;20418;-51
2022/04/22 10:37:43;;;;;;;9.87;8.60;;;;;;;;;;4955693;28;20404;-54
2022/04/22 10:40:35;;;;;;;11.07;9.10;;;;;;;;;;4956857;29;20405;-52
2022/04/22 10:43:02;;;;;;;9.57;7.97;;;;;;;;;;4956712;29;20408;-52
2022/04/22 10:48:19;;;;;;;9.40;8.40;;;;;;;;;;4956319;29;20415;-49
2022/04/22 10:50:56;;;;;;;9.53;8.40;;;;;;;;;;4954670;28;20401;-50
2022/04/22 10:53:23;;;;;;;9.03;8.13;;;;;;;;;;4957851;28;20376;-53
2022/04/22 10:55:50;;;;;;;11.90;9.33;;;;;;;;;;4957579;29;20383;-52
2022/04/22 10:58:16;;;;;;;10.17;9.17;;;;;;;;;;4954008;28;20376;-53
2022/04/22 11:00:43;;;;;;;12.10;9.30;;;;;;;;;;4956206;29;20392;-54
2022/04/22 11:03:13;;;;;;;10.60;9.60;;;;;;;;;;4957313;28;20858;-55
2022/04/22 11:05:43;;;;;;;12.90;10.47;;;;;;;;;;4962304;28;20457;-51
2022/04/22 11:08:17;;;;;;;11.87;10.63;;;;;;;;;;4963368;28;20409;-52
2022/04/22 11:10:52;;;;;;;12.40;11.20;;;;;;;;;;4960201;28;20415;-50
2022/04/22 11:13:29;;;;;;;13.43;12.03;;;;;;;;;;4962025;28;20665;-54
2022/04/22 11:15:58;;;;;;;12.63;11.33;;;;;;;;;;4959287;28;20415;-53
2022/04/22 11:18:25;;;;;;;16.30;13.97;;;;;;;;;;4962423;28;20775;-51
2022/04/22 11:20:52;;;;;;;14.30;12.90;;;;;;;;;;4960299;28;20430;-55
2022/04/22 11:23:19;;;;;;;13.90;11.83;;;;;;;;;;4959934;28;20410;-51
2022/04/22 11:25:46;;;;;;;14.50;11.97;;;;;;;;;;4960597;28;21162;-50
2022/04/22 11:28:14;;;;;;;13.93;12.50;;;;;;;;;;4959951;28;20839;-55
2022/04/22 11:30:40;;;;;;;13.30;12.00;;;;;;;;;;4961955;28;20834;-50
2022/04/22 11:33:23;;;;;;;12.93;11.60;;;;;;;;;;4958997;28;20848;-49
2022/04/22 11:35:53;;;;;;;13.07;11.63;;;;;;;;;;4960435;28;20449;-50
2022/04/22 11:38:23;;;;;;;22.57;12.50;;;;;;;;;;4961558;28;20406;-52
2022/04/22 11:40:49;;;;;;;14.33;12.50;;;;;;;;;;4944677;28;20969;-52
2022/04/22 11:43:18;;;;;;;16.53;12.77;;;;;;;;;;4957492;29;20416;-54
2022/04/22 11:45:46;;;;;;;13.90;11.87;;;;;;;;;;4961187;28;20471;-50
2022/04/22 11:48:15;;;;;;;12.97;11.57;;;;;;;;;;4959369;28;20384;-48
2022/04/22 11:50:42;;;;;;;12.27;10.97;;;;;;;;;;4960905;28;20427;-53
2022/04/22 11:53:13;;;;;;;13.50;10.50;;;;;;;;;;4943041;28;20414;-49
2022/04/22 11:55:42;;;;;;;12.43;10.90;;;;;;;;;;4961208;28;20401;-52
2022/04/22 11:58:08;;;;;;;11.17;9.83;;;;;;;;;;4958211;29;20780;-53
2022/04/22 12:06:03;;;;;;;14.17;10.63;;;;;;;;;;4959440;29;20451;-50
2022/04/22 12:08:29;;;;;;;13.73;11.47;;;;;;;;;;4959340;28;20411;-51
2022/04/22 12:10:55;;;;;;;12.47;11.17;;;;;;;;;;4960117;28;20425;-50
2022/04/22 12:13:24;;;;;;;12.97;11.07;;;;;;;;;;4960584;28;20402;-51
2022/04/22 12:15:54;;;;;;;12.40;11.10;;;;;;;;;;4960055;28;20372;-50
2022/04/22 12:18:41;;;;;;;11.30;10.20;;;;;;;;;;4960354;28;20396;-49
2022/04/22 12:21:07;;;;;;;11.60;10.40;;;;;;;;;;4957663;29;20803;-53
2022/04/22 12:23:38;;;;;;;11.80;10.70;;;;;;;;;;4959429;28;20393;-52
2022/04/22 12:26:05;;;;;;;11.23;10.03;;;;;;;;;;4958978;28;20398;-51
2022/04/22 12:28:33;;;;;;;12.30;10.23;;;;;;;;;;4959283;29;20389;-53
2022/04/22 12:30:59;;;;;;;12.53;10.30;;;;;;;;;;4957956;28;20434;-55
2022/04/22 12:33:25;;;;;;;11.77;10.57;;;;;;;;;;4958038;28;20433;-51
2022/04/22 12:36:05;;;;;;;11.33;10.13;;;;;;;;;;4960371;28;20473;-54
2022/04/22 12:38:32;;;;;;;9.80;8.20;;;;;;;;;;4960237;28;20398;-55
2022/04/22 12:40:58;;;;;;;12.53;8.83;;;;;;;;;;4958692;29;20437;-54
2022/04/22 12:43:28;;;;;;;10.37;9.47;;;;;;;;;;4958154;28;20410;-54
2022/04/22 12:54:34;;;;;;;10.30;8.60;;;;;;;;;;4955370;29;20494;-51
2022/04/22 12:57:00;;;;;;;11.30;9.70;;;;;;;;;;4955128;28;20410;-49
2022/04/22 12:59:42;;;;;;;9.70;8.70;;;;;;;;;;4954402;28;20454;-50
2022/04/22 13:02:09;;;;;;;9.23;8.33;;;;;;;;;;4955035;28;20397;-50
2022/04/22 13:04:48;;;;;;;9.50;8.70;;;;;;;;;;4954878;28;21056;-50
2022/04/22 13:07:15;;;;;;;10.77;9.73;;;;;;;;;;4955098;28;20461;-50
2022/04/22 13:09:40;;;;;;;15.60;9.80;;;;;;;;;;4953908;29;20989;-51
2022/04/22 13:12:07;;;;;;;13.47;10.40;;;;;;;;;;4954949;28;20399;-52
2022/04/22 13:14:33;;;;;;;10.53;9.63;;;;;;;;;;4953581;28;20417;-50
2022/04/22 13:17:00;;;;;;;10.83;9.73;;;;;;;;;;4954947;28;20421;-50
2022/04/22 13:19:26;;;;;;;10.43;9.53;;;;;;;;;;4954020;28;20456;-50
2022/04/22 13:21:52;;;;;;;12.17;10.43;;;;;;;;;;4954258;28;20794;-50
2022/04/22 13:24:18;;;;;;;9.80;8.80;;;;;;;;;;4954516;28;20463;-51
2022/04/22 13:26:44;;;;;;;10.27;9.27;;;;;;;;;;4954648;28;20469;-50
2022/04/22 13:29:10;;;;;;;10.60;9.47;;;;;;;;;;4953850;28;20889;-53
2022/04/22 13:31:36;;;;;;;10.07;9.17;;;;;;;;;;4954529;28;20453;-53
2022/04/22 13:34:03;;;;;;;11.20;9.03;;;;;;;;;;4954564;28;20431;-54
2022/04/22 13:36:30;;;;;;;10.00;8.63;;;;;;;;;;4954600;28;20891;-49
2022/04/22 13:38:56;;;;;;;11.20;9.17;;;;;;;;;;4953654;28;20532;-53
2022/04/22 13:41:22;;;;;;;10.50;9.13;;;;;;;;;;4954498;28;20441;-51
2022/04/22 13:43:48;;;;;;;14.73;10.40;;;;;;;;;;4954306;28;20461;-50
2022/04/22 13:54:28;;;;;;;10.70;9.80;;;;;;;;;;4954266;29;20417;-52
2022/04/22 13:56:54;;;;;;;11.67;10.57;;;;;;;;;;4954156;28;20890;-52
2022/04/22 13:59:20;;;;;;;11.53;10.53;;;;;;;;;;4953402;28;20425;-52
2022/04/22 14:01:46;;;;;;;11.43;10.30;;;;;;;;;;4954032;28;20401;-50
2022/04/22 14:04:12;;;;;;;11.63;10.57;;;;;;;;;;4953955;28;20531;-51
2022/04/22 14:06:38;;;;;;;11.20;10.30;;;;;;;;;;4953955;28;20416;-51
2022/04/22 14:09:04;;;;;;;11.20;10.17;;;;;;;;;;4953170;29;20972;-52
2022/04/22 14:11:30;;;;;;;12.60;11.40;;;;;;;;;;4953999;28;20398;-55
2022/04/22 14:13:57;;;;;;;14.30;11.57;;;;;;;;;;4953990;28;20504;-50
2022/04/22 14:16:24;;;;;;;14.00;11.57;;;;;;;;;;4953846;28;20424;-52
2022/04/22 14:18:50;;;;;;;14.33;12.43;;;;;;;;;;4953137;28;20414;-50
2022/04/22 14:21:16;;;;;;;13.60;12.40;;;;;;;;;;4954101;29;20819;-50
2022/04/22 14:23:42;;;;;;;13.47;11.90;;;;;;;;;;4953830;28;20511;-50
2022/04/22 14:26:12;;;;;;;14.93;12.37;;;;;;;;;;4953808;28;20413;-50
2022/04/22 14:28:38;;;;;;;13.27;12.00;;;;;;;;;;4952980;28;20413;-54
2022/04/22 14:31:05;;;;;;;12.97;11.77;;;;;;;;;;4952250;28;20442;-51
2022/04/22 14:33:31;;;;;;;13.20;12.00;;;;;;;;;;4953209;28;20474;-50
2022/04/22 14:35:57;;;;;;;12.93;11.60;;;;;;;;;;4953373;28;20440;-51
2022/04/22 14:38:23;;;;;;;14.03;12.63;;;;;;;;;;4953578;28;20452;-52
2022/04/22 14:40:49;;;;;;;15.77;13.30;;;;;;;;;;4953315;28;20803;-50
2022/04/22 14:43:15;;;;;;;13.00;11.90;;;;;;;;;;4953544;28;20547;-51
2022/04/22 14:45:41;;;;;;;13.20;12.00;;;;;;;;;;4953477;28;20450;-53
2022/04/22 14:48:07;;;;;;;13.00;11.77;;;;;;;;;;4953716;28;20402;-54
2022/04/22 14:50:33;;;;;;;12.70;11.60;;;;;;;;;;4952801;28;20441;-54
2022/04/22 14:52:59;;;;;;;11.83;10.73;;;;;;;;;;4953433;28;20399;-50
2022/04/22 14:55:25;;;;;;;16.47;11.27;;;;;;;;;;4953951;28;20442;-50
2022/04/22 14:57:51;;;;;;;13.27;12.03;;;;;;;;;;4953580;28;20415;-50
2022/04/22 15:00:17;;;;;;;12.40;11.30;;;;;;;;;;4952360;28;20426;-50
2022/04/22 15:02:43;;;;;;;16.63;11.97;;;;;;;;;;4953385;28;20458;-50
2022/04/22 15:05:09;;;;;;;13.10;11.87;;;;;;;;;;4953377;28;20496;-52
2022/04/22 15:07:36;;;;;;;13.00;11.27;;;;;;;;;;4953907;28;20495;-56
2022/04/22 15:10:05;;;;;;;13.47;11.93;;;;;;;;;;4952455;28;20988;-55
2022/04/22 15:12:31;;;;;;;14.73;12.90;;;;;;;;;;4953145;28;20461;-56
2022/04/22 15:14:57;;;;;;;14.77;13.27;;;;;;;;;;4952141;28;20494;-55
2022/04/22 15:25:39;;;;;;;13.67;12.40;;;;;;;;;;4952833;29;20499;-56
2022/04/22 15:28:06;;;;;;;15.53;13.87;;;;;;;;;;4952300;28;20412;-56
2022/04/22 15:30:51;;;;;;;14.77;13.30;;;;;;;;;;4950597;28;20428;-54
2022/04/22 15:33:17;;;;;;;14.33;12.93;;;;;;;;;;4953077;28;20463;-54
2022/04/22 15:35:43;;;;;;;15.53;12.80;;;;;;;;;;4953032;28;20417;-54
2022/04/22 15:38:09;;;;;;;13.90;12.60;;;;;;;;;;4952637;28;20422;-56
2022/04/22 15:40:35;;;;;;;15.60;12.80;;;;;;;;;;4952059;28;20429;-56
2022/04/22 15:43:01;;;;;;;16.07;13.83;;;;;;;;;;4953086;28;20408;-56
2022/04/22 15:45:27;;;;;;;13.40;12.10;;;;;;;;;;4953749;28;20555;-56
2022/04/22 15:47:53;;;;;;;14.47;13.07;;;;;;;;;;4956504;28;20404;-55